This is the latest recevied weather packets stored in our database for station/object KE4PKT-13. If no packets are shown the sender has not sent any weather packets the latest 10 day(s).
| Time | Temp. | Humidity | Pressure | Rain* | Wind** | Luminosity | Snow |
|---|---|---|---|---|---|---|---|
| 1788011528 | 23.89° C | 75% | 1020.5 hPa | 0 mm | - | - | - |
| 1788009769 | 22.78° C | 81% | 1020.4 hPa | 0 mm | - | - | - |
| 1788008767 | 21.67° C | 83% | 1020 hPa | 0 mm | - | - | - |
| 1788007328 | 18.89° C | 91% | 1020 hPa | 0 mm | - | - | - |
| 1788006648 | 17.78° C | 91% | 1019.9 hPa | 0 mm | - | - | - |
| 1788006408 | 17.78° C | 91% | 1019.8 hPa | 0 mm | - | - | - |
| 1788006288 | 17.78° C | 91% | 1019.8 hPa | 0 mm | - | - | - |
| 1788005888 | 17.78° C | 94% | 1019.8 hPa | 0 mm | - | - | - |
| 1788005827 | 17.78° C | 93% | 1019.8 hPa | 0 mm | - | - | - |
| 1788005024 | 16.11° C | 94% | 1019.8 hPa | 0 mm | - | - | - |
| 1788004844 | 16.67° C | 95% | 1019.7 hPa | 0 mm | - | - | - |
| 1788004601 | 16.11° C | 96% | 1019.8 hPa | 0 mm | - | - | - |
| 1788004343 | 15.56° C | 96% | 1019.8 hPa | 0 mm | - | - | - |
| 1787913968 | 15.56° C | 96% | 1016 hPa | 0 mm | - | - | - |
| 1787910364 | 15.56° C | 95% | 1015.2 hPa | 0 mm | - | - | - |
| 1787866479 | 31.11° C | 51% | 1011.5 hPa | 0 mm | - | - | - |
| 1787865999 | 30.56° C | 57% | 1011.7 hPa | 0 mm | - | - | - |
| 1787865759 | 30.56° C | 55% | 1011.6 hPa | 0 mm | - | - | - |
| 1787865519 | 30° C | 55% | 1011.7 hPa | 0 mm | - | - | - |
| 1787865399 | 30° C | 56% | 1011.7 hPa | 0 mm | - | - | - |
| 1787865279 | 30° C | 54% | 1011.6 hPa | 0 mm | - | - | - |
| 1787865219 | 30° C | 54% | 1011.6 hPa | 0 mm | - | - | - |
| 1787771347 | 26.67° C | 58% | 1014.3 hPa | 0 mm | - | - | - |
| 1787769299 | 26.67° C | 61% | 1014.6 hPa | 0 mm | - | - | - |
| 1787767498 | 26.67° C | 59% | 1015 hPa | 0 mm | - | - | - |
* Rain latest hour (hover to see other rain measurements)
** Current wind speed in m/s (hover to see current wind gust speed)